createdAt,value
2023-02-22T00:01:28.335Z,32.65
2023-02-22T00:03:57.101Z,36.03
2023-02-22T00:06:26.176Z,38.15
2023-02-22T00:08:55.795Z,41.75
2023-02-22T00:11:24.976Z,39.83
2023-02-22T00:13:57.243Z,40.55
2023-02-22T00:16:28.265Z,42.60
2023-02-22T00:18:56.976Z,46.47
2023-02-22T00:21:25.720Z,57.83
2023-02-22T00:23:54.782Z,44.78
2023-02-22T00:26:24.511Z,53.15
2023-02-22T00:28:54.943Z,52.53
2023-02-22T00:33:56.146Z,45.17
2023-02-22T00:36:24.940Z,43.33
2023-02-22T00:38:55.665Z,55.33
2023-02-22T00:41:24.389Z,41.60
2023-02-22T00:43:53.178Z,60.90
2023-02-22T00:46:21.897Z,54.63
2023-02-22T00:48:51.888Z,70.25
2023-02-22T00:51:20.732Z,36.22
2023-02-22T00:53:52.597Z,51.50
2023-02-22T00:56:21.578Z,101.88
2023-02-22T00:58:50.246Z,37.90
2023-02-22T01:01:19.385Z,38.53
2023-02-22T01:03:48.488Z,41.90
2023-02-22T01:06:19.897Z,51.30
2023-02-22T01:08:49.437Z,48.47
2023-02-22T01:11:19.464Z,31.88
2023-02-22T01:13:48.187Z,29.77
2023-02-22T01:16:16.879Z,38.42
2023-02-22T01:18:45.689Z,38.67
2023-02-22T01:21:15.015Z,43.40
2023-02-22T01:23:47.615Z,38.33
2023-02-22T01:26:16.312Z,32.85
2023-02-22T01:28:45.142Z,29.33
2023-02-22T01:31:13.865Z,38.20
2023-02-22T01:33:42.938Z,40.55
2023-02-22T01:36:12.358Z,29.02
2023-02-22T01:38:41.111Z,42.20
2023-02-22T01:41:11.186Z,34.42
2023-02-22T01:43:40.047Z,32.55
2023-02-22T01:46:21.898Z,31.70
2023-02-22T01:48:55.259Z,31.40
2023-02-22T01:51:30.360Z,24.67
2023-02-22T01:54:05.512Z,34.00
2023-02-22T01:56:39.251Z,28.25
2023-02-22T01:59:11.799Z,30.65
2023-02-22T02:01:44.717Z,32.80
2023-02-22T02:04:20.576Z,23.75
2023-02-22T02:06:49.981Z,31.00
2023-02-22T02:09:29.683Z,27.77
2023-02-22T02:12:02.668Z,26.25
2023-02-22T02:14:32.939Z,26.30
2023-02-22T02:17:02.500Z,27.65
2023-02-22T02:19:42.801Z,27.73
2023-02-22T02:22:34.494Z,24.05
2023-02-22T02:25:31.085Z,22.77
2023-02-22T02:28:27.395Z,23.58
2023-02-22T02:31:20.430Z,26.25
2023-02-22T02:33:55.504Z,21.90
2023-02-22T02:36:34.039Z,22.50
2023-02-22T02:39:10.256Z,25.33
2023-02-22T02:41:45.437Z,24.05
2023-02-22T02:44:18.654Z,24.27
2023-02-22T02:46:51.703Z,25.45
2023-02-22T02:49:29.041Z,24.02
2023-02-22T02:51:59.723Z,26.48
2023-02-22T02:54:30.368Z,20.48
2023-02-22T02:56:59.321Z,21.20
2023-02-22T02:59:30.001Z,18.52
2023-02-22T03:02:14.292Z,23.55
2023-02-22T03:04:59.967Z,20.52
2023-02-22T03:07:43.033Z,20.73
2023-02-22T03:10:34.179Z,19.85
2023-02-22T03:13:11.731Z,20.70
2023-02-22T03:15:51.412Z,21.67
2023-02-22T03:18:29.062Z,20.33
2023-02-22T03:21:09.308Z,19.13
2023-02-22T03:23:45.132Z,19.10
2023-02-22T03:26:23.884Z,22.83
2023-02-22T03:28:57.090Z,19.85
2023-02-22T03:31:31.211Z,17.48
2023-02-22T03:34:05.899Z,19.35
2023-02-22T03:36:40.485Z,18.33
2023-02-22T03:39:16.014Z,19.65
2023-02-22T03:41:51.495Z,17.30
2023-02-22T03:44:28.856Z,19.38
2023-02-22T03:47:02.025Z,19.02
2023-02-22T03:49:36.097Z,17.75
2023-02-22T03:52:09.041Z,19.40
2023-02-22T03:54:39.728Z,18.10
2023-02-22T03:57:15.142Z,17.17
2023-02-22T03:59:46.257Z,18.25
2023-02-22T04:02:19.050Z,17.27
2023-02-22T04:04:48.568Z,16.13
2023-02-22T04:07:19.748Z,17.83
2023-02-22T04:09:49.083Z,17.10
2023-02-22T04:12:18.471Z,16.95
2023-02-22T04:14:58.853Z,19.77
2023-02-22T04:17:27.649Z,17.55
2023-02-22T04:19:57.713Z,18.50
2023-02-22T04:22:29.830Z,16.38
2023-02-22T04:24:58.769Z,18.23
2023-02-22T04:27:28.523Z,17.80
2023-02-22T04:29:58.647Z,20.38
2023-02-22T04:32:28.583Z,15.60
2023-02-22T04:34:57.444Z,16.02
2023-02-22T04:37:26.399Z,17.33
2023-02-22T04:39:56.597Z,17.58
2023-02-22T04:42:25.392Z,15.60
2023-02-22T04:44:54.600Z,15.52
2023-02-22T04:47:23.611Z,14.70
2023-02-22T04:49:52.711Z,16.60
2023-02-22T04:52:21.777Z,14.48
2023-02-22T04:54:50.896Z,15.85
2023-02-22T04:57:21.906Z,17.58
2023-02-22T04:59:52.216Z,15.85
2023-02-22T05:02:21.686Z,16.75
2023-02-22T05:04:50.659Z,16.20
2023-02-22T05:07:19.494Z,13.77
2023-02-22T05:09:48.416Z,17.38
2023-02-22T05:12:17.168Z,13.93
2023-02-22T05:14:47.210Z,13.30
2023-02-22T05:17:15.984Z,14.75
2023-02-22T05:19:44.659Z,12.02
2023-02-22T05:22:13.401Z,12.10
2023-02-22T05:24:42.027Z,15.25
2023-02-22T05:27:11.809Z,14.55
2023-02-22T05:29:40.655Z,15.80
2023-02-22T05:32:12.322Z,14.18
2023-02-22T05:34:41.130Z,16.08
2023-02-22T05:37:09.932Z,12.35
2023-02-22T05:39:38.738Z,14.30
2023-02-22T05:42:07.422Z,12.27
2023-02-22T05:44:36.201Z,14.70
2023-02-22T05:47:04.929Z,14.07
2023-02-22T05:49:34.985Z,13.60
2023-02-22T05:52:03.733Z,13.48
2023-02-22T05:54:32.464Z,17.42
2023-02-22T05:57:01.317Z,14.82
2023-02-22T05:59:30.372Z,13.82
2023-02-22T06:01:59.093Z,12.77
2023-02-22T06:04:27.933Z,13.32
2023-02-22T06:06:58.065Z,11.98
2023-02-22T06:09:26.878Z,14.77
2023-02-22T06:11:55.543Z,12.80
2023-02-22T06:14:24.535Z,11.98
2023-02-22T06:16:56.990Z,12.88
2023-02-22T06:19:26.271Z,13.45
2023-02-22T06:21:59.977Z,10.23
2023-02-22T06:24:28.744Z,13.45
2023-02-22T06:26:58.716Z,11.40
2023-02-22T06:29:28.204Z,11.43
2023-02-22T06:31:57.386Z,10.90
2023-02-22T06:34:26.070Z,10.85
2023-02-22T06:36:54.936Z,13.45
2023-02-22T06:39:25.605Z,11.35
2023-02-22T06:41:56.359Z,13.32
2023-02-22T06:44:25.115Z,12.98
2023-02-22T06:46:53.791Z,11.52
2023-02-22T06:49:22.621Z,12.00
2023-02-22T06:51:51.273Z,13.88
2023-02-22T06:54:20.207Z,12.18
2023-02-22T06:56:50.525Z,13.38
2023-02-22T06:59:19.137Z,10.07
2023-02-22T07:01:47.965Z,13.48
2023-02-22T07:04:16.923Z,10.65
2023-02-22T07:06:47.608Z,11.80
2023-02-22T07:09:18.231Z,18.20
2023-02-22T07:11:47.123Z,30.45
2023-02-22T07:14:19.483Z,20.48
2023-02-22T07:16:48.245Z,32.08
2023-02-22T07:19:16.877Z,36.00
2023-02-22T07:21:47.992Z,27.23
2023-02-22T07:24:16.699Z,24.55
2023-02-22T07:26:45.430Z,16.08
2023-02-22T07:29:14.189Z,14.57
2023-02-22T07:31:44.453Z,14.18
2023-02-22T07:34:13.194Z,16.17
2023-02-22T07:36:41.860Z,13.38
2023-02-22T07:39:11.180Z,12.50
2023-02-22T07:41:40.019Z,14.50
2023-02-22T07:44:23.282Z,13.23
2023-02-22T07:46:53.495Z,13.02
2023-02-22T07:49:22.389Z,12.20
2023-02-22T07:51:51.112Z,12.68
2023-02-22T07:54:19.976Z,14.80
2023-02-22T07:56:49.528Z,14.82
2023-02-22T07:59:18.236Z,19.25
2023-02-22T08:01:50.051Z,15.65
2023-02-22T08:04:20.334Z,16.02
2023-02-22T08:06:50.270Z,16.92
2023-02-22T08:09:19.031Z,15.43
2023-02-22T08:11:47.772Z,17.23
2023-02-22T08:14:17.913Z,17.33
2023-02-22T08:16:46.641Z,15.13
2023-02-22T08:19:15.561Z,14.38
2023-02-22T08:21:45.831Z,13.65
2023-02-22T08:24:14.612Z,14.68
2023-02-22T08:26:46.309Z,17.67
2023-02-22T08:29:15.435Z,16.13
2023-02-22T08:31:53.171Z,13.93
2023-02-22T08:34:22.201Z,15.50
2023-02-22T08:36:52.494Z,12.05
2023-02-22T08:39:21.423Z,15.27
2023-02-22T08:41:50.077Z,11.30
2023-02-22T08:44:18.911Z,15.73
2023-02-22T08:46:47.641Z,14.82
2023-02-22T08:49:16.329Z,12.63
2023-02-22T08:51:45.074Z,13.88
2023-02-22T08:54:15.479Z,11.32
2023-02-22T08:56:44.217Z,12.80
2023-02-22T08:59:14.881Z,15.52
2023-02-22T09:01:44.011Z,18.05
2023-02-22T09:04:12.738Z,12.60
2023-02-22T09:06:42.395Z,12.68
2023-02-22T09:09:11.436Z,14.25
2023-02-22T09:11:41.599Z,17.35
2023-02-22T09:14:10.426Z,10.90
2023-02-22T09:16:39.264Z,17.23
2023-02-22T09:19:08.219Z,21.83
2023-02-22T09:21:37.277Z,14.10
2023-02-22T09:24:08.647Z,16.70
2023-02-22T09:26:39.449Z,20.50
2023-02-22T09:29:10.815Z,19.85
2023-02-22T09:31:41.249Z,21.15
2023-02-22T09:34:13.927Z,18.30
2023-02-22T09:36:43.300Z,19.58
2023-02-22T09:39:12.531Z,18.58
2023-02-22T09:41:51.936Z,16.38
2023-02-22T09:44:30.025Z,19.73
2023-02-22T09:47:02.678Z,15.13
2023-02-22T09:49:38.406Z,16.42
2023-02-22T09:52:15.428Z,17.55
2023-02-22T09:54:51.974Z,17.98
2023-02-22T09:57:29.289Z,20.08
2023-02-22T10:00:13.276Z,24.98
2023-02-22T10:02:50.820Z,16.08
2023-02-22T10:05:27.611Z,18.20
2023-02-22T10:08:05.804Z,18.02
2023-02-22T10:10:40.009Z,19.15
2023-02-22T10:13:20.236Z,17.02
2023-02-22T10:15:58.371Z,18.55
2023-02-22T10:19:08.360Z,17.95
2023-02-22T10:21:48.867Z,19.77
2023-02-22T10:24:33.879Z,17.08
2023-02-22T10:27:03.096Z,18.65
2023-02-22T10:29:37.513Z,20.50
2023-02-22T10:32:12.286Z,17.20
2023-02-22T10:34:45.169Z,20.95
2023-02-22T10:37:23.779Z,18.05
2023-02-22T10:39:56.062Z,19.77
2023-02-22T10:42:28.327Z,20.13
2023-02-22T10:44:57.131Z,21.15
2023-02-22T10:47:28.160Z,20.35
2023-02-22T10:50:00.532Z,22.80
2023-02-22T10:52:31.846Z,21.13
2023-02-22T10:55:14.578Z,23.67
2023-02-22T10:57:48.217Z,24.70
2023-02-22T11:00:20.607Z,23.98
2023-02-22T11:02:56.120Z,20.25
2023-02-22T11:05:31.656Z,26.63
2023-02-22T11:08:23.760Z,21.73
2023-02-22T11:10:54.329Z,20.70
2023-02-22T11:13:28.594Z,24.02
2023-02-22T11:16:01.449Z,23.05
2023-02-22T11:18:35.341Z,24.75
2023-02-22T11:21:07.909Z,25.42
2023-02-22T11:23:38.269Z,23.52
2023-02-22T11:26:10.242Z,24.20
2023-02-22T11:28:49.167Z,27.85
2023-02-22T11:31:23.487Z,23.35
2023-02-22T11:36:40.605Z,24.98
2023-02-22T11:39:24.559Z,23.27
2023-02-22T11:41:53.442Z,26.90
2023-02-22T11:44:26.729Z,23.65
2023-02-22T11:46:57.723Z,23.83
2023-02-22T11:49:35.827Z,23.50
2023-02-22T11:52:17.881Z,23.92
2023-02-22T11:55:02.263Z,28.52
2023-02-22T11:57:46.357Z,24.30
2023-02-22T12:00:25.455Z,27.38
2023-02-22T12:03:15.932Z,24.95
2023-02-22T12:06:00.588Z,24.00
2023-02-22T12:08:41.103Z,24.67
2023-02-22T12:11:19.340Z,30.33
2023-02-22T12:14:03.035Z,24.20
2023-02-22T12:16:44.121Z,25.40
2023-02-22T12:19:22.242Z,26.67
2023-02-22T12:21:58.501Z,24.02
2023-02-22T12:24:35.087Z,30.38
2023-02-22T12:27:09.722Z,25.83
2023-02-22T12:29:44.810Z,25.77
2023-02-22T12:32:17.222Z,30.88
2023-02-22T12:34:49.198Z,28.50
2023-02-22T12:37:23.697Z,36.35
2023-02-22T12:40:00.455Z,28.42
2023-02-22T12:42:36.512Z,31.75
2023-02-22T12:45:16.876Z,28.25
2023-02-22T12:47:52.399Z,26.17
2023-02-22T12:50:24.424Z,30.05
2023-02-22T12:53:00.227Z,35.33
2023-02-22T12:55:34.552Z,37.22
2023-02-22T12:58:15.065Z,30.95
2023-02-22T13:00:49.638Z,27.05
2023-02-22T13:03:35.664Z,28.77
2023-02-22T13:06:28.345Z,29.35
2023-02-22T13:09:17.183Z,29.73
2023-02-22T13:11:52.874Z,28.27
2023-02-22T13:14:50.930Z,28.15
2023-02-22T13:17:25.396Z,28.67
2023-02-22T13:20:00.510Z,29.80
2023-02-22T13:22:36.531Z,31.88
2023-02-22T13:25:14.034Z,29.75
2023-02-22T13:27:48.753Z,31.05
2023-02-22T13:30:22.677Z,31.10
2023-02-22T13:33:09.165Z,32.05
2023-02-22T13:35:50.456Z,31.23
2023-02-22T13:38:51.787Z,32.35
2023-02-22T13:41:40.011Z,32.97
2023-02-22T13:44:35.347Z,29.92
2023-02-22T13:47:28.473Z,28.65
2023-02-22T13:50:19.249Z,32.42
2023-02-22T13:52:50.062Z,30.50
2023-02-22T13:55:22.500Z,32.78
2023-02-22T13:58:03.023Z,34.42
2023-02-22T14:00:44.384Z,30.98
2023-02-22T14:03:36.059Z,34.22
2023-02-22T14:06:06.436Z,29.80
2023-02-22T14:08:45.558Z,34.60
2023-02-22T14:11:57.854Z,41.25
2023-02-22T14:14:28.086Z,33.92
2023-02-22T14:17:32.859Z,31.75
2023-02-22T14:20:14.784Z,33.13
2023-02-22T14:22:46.933Z,34.70
2023-02-22T14:25:37.517Z,37.67
2023-02-22T14:28:31.416Z,35.17
2023-02-22T14:31:09.735Z,37.58
2023-02-22T14:34:03.936Z,38.47
2023-02-22T14:36:37.590Z,41.35
2023-02-22T14:39:19.227Z,38.88
2023-02-22T14:41:54.837Z,36.70
2023-02-22T14:44:29.036Z,41.78
2023-02-22T14:47:05.003Z,41.08
2023-02-22T14:49:39.619Z,41.38
2023-02-22T14:52:19.648Z,36.15
2023-02-22T14:54:59.721Z,41.95
2023-02-22T14:57:38.593Z,43.25
2023-02-22T15:00:22.701Z,39.22
2023-02-22T15:02:57.220Z,39.33
2023-02-22T15:05:30.449Z,41.63
2023-02-22T15:08:02.072Z,39.90
2023-02-22T15:10:33.039Z,45.63
2023-02-22T15:13:10.006Z,42.10
2023-02-22T15:15:43.896Z,51.28
2023-02-22T15:18:21.985Z,52.70
2023-02-22T15:20:56.218Z,45.22
2023-02-22T15:23:30.282Z,44.75
2023-02-22T15:25:59.232Z,41.90
2023-02-22T15:28:31.380Z,43.85
2023-02-22T15:31:23.875Z,45.10
2023-02-22T15:33:55.450Z,38.15
2023-02-22T15:36:31.139Z,40.22
2023-02-22T15:39:00.046Z,40.60
2023-02-22T15:41:31.741Z,38.45
2023-02-22T15:44:07.924Z,37.80
2023-02-22T15:46:40.277Z,36.47
2023-02-22T15:49:23.226Z,45.92
2023-02-22T15:52:07.954Z,38.55
2023-02-22T15:54:43.360Z,39.13
2023-02-22T15:57:16.303Z,49.45
2023-02-22T15:59:49.330Z,44.95
2023-02-22T16:02:34.171Z,42.28
2023-02-22T16:05:08.253Z,46.28
2023-02-22T16:07:45.408Z,49.67
2023-02-22T16:10:28.177Z,44.53
2023-02-22T16:13:14.424Z,42.70
2023-02-22T16:15:56.147Z,43.83
2023-02-22T16:18:31.580Z,44.33
2023-02-22T16:21:07.614Z,44.95
2023-02-22T16:23:46.122Z,45.63
2023-02-22T16:28:55.228Z,44.42
2023-02-22T16:31:27.262Z,46.00
2023-02-22T16:33:56.522Z,41.78
2023-02-22T16:36:39.393Z,51.28
2023-02-22T16:39:09.170Z,43.60
2023-02-22T16:41:38.074Z,49.25
2023-02-22T16:44:08.307Z,45.22
2023-02-22T16:46:37.964Z,53.75
2023-02-22T16:49:06.949Z,44.92
2023-02-22T16:51:45.202Z,45.88
2023-02-22T16:54:19.954Z,54.03
2023-02-22T16:56:48.816Z,48.00
2023-02-22T16:59:18.362Z,50.13
2023-02-22T17:01:47.251Z,54.50
2023-02-22T17:04:18.406Z,53.55
2023-02-22T17:06:48.607Z,50.33
2023-02-22T17:09:20.118Z,47.38
2023-02-22T17:11:53.279Z,51.88
2023-02-22T17:14:24.406Z,52.63
2023-02-22T17:16:53.686Z,52.30
2023-02-22T17:19:27.832Z,55.40
2023-02-22T17:21:58.090Z,51.97
2023-02-22T17:24:29.242Z,60.78
2023-02-22T17:26:59.834Z,54.58
2023-02-22T17:29:30.738Z,56.05
2023-02-22T17:31:59.798Z,53.67
2023-02-22T17:34:29.236Z,55.80
2023-02-22T17:36:59.345Z,58.58
2023-02-22T17:39:28.429Z,59.17
2023-02-22T17:41:57.841Z,63.10
2023-02-22T17:44:27.282Z,61.67
2023-02-22T17:46:56.056Z,64.57
2023-02-22T17:49:24.781Z,57.10
2023-02-22T17:51:53.559Z,61.78
2023-02-22T17:54:24.501Z,56.22
2023-02-22T17:56:53.251Z,62.88
2023-02-22T17:59:21.955Z,66.95
2023-02-22T18:01:52.695Z,61.63
2023-02-22T18:04:21.479Z,58.30
2023-02-22T18:06:51.842Z,63.67
2023-02-22T18:09:20.912Z,61.85
2023-02-22T18:11:51.211Z,58.95
2023-02-22T18:14:19.885Z,67.85
2023-02-22T18:16:48.834Z,54.10
2023-02-22T18:19:20.391Z,62.75
2023-02-22T18:21:50.763Z,60.25
2023-02-22T18:24:19.598Z,61.95
2023-02-22T18:26:48.554Z,63.60
2023-02-22T18:29:18.757Z,57.38
2023-02-22T18:31:47.665Z,64.53
2023-02-22T18:34:17.548Z,68.05
2023-02-22T18:36:46.281Z,70.28
2023-02-22T18:39:15.068Z,62.55
2023-02-22T18:41:45.694Z,60.25
2023-02-22T18:44:14.483Z,69.82
2023-02-22T18:46:45.042Z,66.65
2023-02-22T18:49:14.859Z,63.20
2023-02-22T18:51:46.023Z,68.95
2023-02-22T18:54:14.843Z,67.15
2023-02-22T18:56:43.669Z,65.78
2023-02-22T18:59:13.697Z,60.58
2023-02-22T19:01:48.903Z,59.53
2023-02-22T19:04:18.793Z,57.95
2023-02-22T19:06:49.755Z,67.65
2023-02-22T19:09:18.597Z,74.97
2023-02-22T19:11:48.393Z,60.28
2023-02-22T19:14:17.589Z,66.47
2023-02-22T19:16:49.631Z,63.10
2023-02-22T19:19:20.848Z,61.97
2023-02-22T19:21:50.373Z,59.28
2023-02-22T19:24:20.555Z,57.92
2023-02-22T19:26:50.829Z,64.93
2023-02-22T19:29:22.135Z,59.47
2023-02-22T19:31:53.784Z,63.35
2023-02-22T19:34:24.815Z,60.20
2023-02-22T19:36:54.047Z,59.78
2023-02-22T19:41:58.223Z,55.72
2023-02-22T19:44:28.575Z,58.22
2023-02-22T19:46:58.793Z,54.67
2023-02-22T19:49:29.138Z,64.80
2023-02-22T19:51:58.360Z,59.58
2023-02-22T19:54:27.481Z,62.90
2023-02-22T19:56:58.141Z,56.10
2023-02-22T19:59:27.027Z,59.90
2023-02-22T20:01:56.643Z,58.58
2023-02-22T20:04:30.684Z,57.47
2023-02-22T20:06:59.485Z,60.33
2023-02-22T20:09:36.203Z,58.15
2023-02-22T20:12:10.416Z,59.25
2023-02-22T20:14:39.212Z,61.17
2023-02-22T20:17:09.299Z,54.13
2023-02-22T20:19:40.753Z,57.92
2023-02-22T20:22:10.147Z,53.78
2023-02-22T20:24:38.889Z,58.92
2023-02-22T20:27:09.255Z,57.28
2023-02-22T20:29:37.962Z,59.05
2023-02-22T20:32:11.036Z,62.83
2023-02-22T20:34:45.906Z,60.30
2023-02-22T20:37:15.877Z,64.70
2023-02-22T20:39:44.786Z,62.17
2023-02-22T20:42:15.534Z,64.68
2023-02-22T20:44:45.126Z,56.60
2023-02-22T20:47:13.924Z,62.38
2023-02-22T20:49:44.169Z,57.47
2023-02-22T20:52:12.916Z,63.75
2023-02-22T20:54:41.706Z,63.15
2023-02-22T20:57:10.568Z,64.75
2023-02-22T20:59:39.326Z,60.65
2023-02-22T21:02:08.611Z,62.63
2023-02-22T21:04:37.435Z,61.92
2023-02-22T21:07:07.523Z,61.17
2023-02-22T21:09:37.303Z,58.75
2023-02-22T21:12:13.325Z,63.50
2023-02-22T21:14:44.219Z,70.88
2023-02-22T21:17:13.125Z,64.97
2023-02-22T21:19:42.195Z,63.03
2023-02-22T21:22:12.311Z,67.13
2023-02-22T21:24:41.239Z,61.33
2023-02-22T21:27:12.192Z,69.82
2023-02-22T21:29:41.039Z,61.72
2023-02-22T21:32:09.999Z,69.43
2023-02-22T21:34:39.392Z,70.13
2023-02-22T21:37:08.690Z,65.07
2023-02-22T21:39:38.815Z,69.25
2023-02-22T21:42:08.207Z,62.20
2023-02-22T21:44:37.148Z,57.38
2023-02-22T21:47:05.960Z,64.85
2023-02-22T21:49:34.925Z,65.57
2023-02-22T21:52:04.314Z,61.70
2023-02-22T21:54:32.968Z,66.43
2023-02-22T21:57:06.182Z,69.43
2023-02-22T21:59:35.153Z,65.32
2023-02-22T22:02:03.853Z,64.35
2023-02-22T22:04:37.494Z,61.38
2023-02-22T22:07:06.298Z,59.60
2023-02-22T22:09:37.933Z,63.40
2023-02-22T22:12:10.192Z,56.58
2023-02-22T22:14:40.269Z,56.53
2023-02-22T22:17:09.639Z,57.00
2023-02-22T22:19:40.445Z,58.00
2023-02-22T22:22:09.946Z,57.35
2023-02-22T22:24:41.436Z,57.28
2023-02-22T22:27:12.912Z,60.45
2023-02-22T22:29:43.451Z,59.75
2023-02-22T22:32:12.482Z,60.58
2023-02-22T22:34:42.631Z,55.00
2023-02-22T22:37:11.379Z,55.58
2023-02-22T22:39:40.221Z,59.22
2023-02-22T22:42:09.202Z,56.83
2023-02-22T22:44:42.082Z,56.10
2023-02-22T22:47:12.442Z,56.63
2023-02-22T22:49:42.534Z,55.10
2023-02-22T22:52:13.859Z,51.70
2023-02-22T22:54:43.349Z,55.45
2023-02-22T22:57:12.766Z,52.85
2023-02-22T22:59:43.154Z,51.03
2023-02-22T23:02:12.022Z,49.80
2023-02-22T23:04:40.812Z,48.03
2023-02-22T23:07:09.810Z,45.03
2023-02-22T23:09:39.389Z,55.33
2023-02-22T23:12:09.621Z,50.58
2023-02-22T23:14:40.212Z,50.78
2023-02-22T23:17:26.792Z,48.13
2023-02-22T23:19:56.132Z,44.50
2023-02-22T23:22:24.820Z,47.55
2023-02-22T23:24:54.574Z,41.80
2023-02-22T23:27:23.753Z,45.15
2023-02-22T23:29:52.596Z,46.60
2023-02-22T23:32:22.726Z,47.88
2023-02-22T23:34:51.480Z,48.28
2023-02-22T23:37:20.783Z,50.13
2023-02-22T23:39:50.861Z,48.15
2023-02-22T23:42:19.622Z,42.78
2023-02-22T23:44:49.232Z,45.15
2023-02-22T23:47:17.945Z,47.72
2023-02-22T23:49:49.595Z,46.17
2023-02-22T23:52:24.142Z,46.00
2023-02-22T23:54:54.082Z,45.00
2023-02-22T23:57:24.258Z,43.35
2023-02-22T23:59:53.242Z,45.55
